createdAt,value
2018-07-15T00:00:59.247Z,63.70
2018-07-15T00:03:27.718Z,63.90
2018-07-15T00:05:56.188Z,63.50
2018-07-15T00:08:25.039Z,63.50
2018-07-15T00:10:53.482Z,63.50
2018-07-15T00:13:21.967Z,63.50
2018-07-15T00:15:50.412Z,63.50
2018-07-15T00:18:19.169Z,63.40
2018-07-15T00:23:15.843Z,64.40
2018-07-15T00:25:44.304Z,64.30
2018-07-15T00:28:12.764Z,64.20
2018-07-15T00:30:41.240Z,64.10
2018-07-15T00:33:09.734Z,64.10
2018-07-15T00:35:38.164Z,64.10
2018-07-15T00:38:06.938Z,64.10
2018-07-15T00:40:35.628Z,64.10
2018-07-15T00:43:04.431Z,64.20
2018-07-15T00:45:32.902Z,64.00
2018-07-15T00:48:01.337Z,64.00
2018-07-15T00:50:30.181Z,63.90
2018-07-15T00:52:59.518Z,63.90
2018-07-15T00:55:27.984Z,64.40
2018-07-15T00:57:56.422Z,64.30
2018-07-15T01:00:30.195Z,64.30
2018-07-15T01:02:58.639Z,64.30
2018-07-15T01:05:27.106Z,64.30
2018-07-15T01:07:55.539Z,64.20
2018-07-15T01:10:24.039Z,64.10
2018-07-15T01:12:52.851Z,64.20
2018-07-15T01:15:21.340Z,64.60
2018-07-15T01:17:50.139Z,64.70
2018-07-15T01:20:18.640Z,64.90
2018-07-15T01:22:47.088Z,64.80
2018-07-15T01:25:15.588Z,64.80
2018-07-15T01:27:44.021Z,64.70
2018-07-15T01:30:12.852Z,64.80
2018-07-15T01:32:41.289Z,64.80
2018-07-15T01:35:09.768Z,64.70
2018-07-15T01:37:38.218Z,64.70
2018-07-15T01:40:06.956Z,64.70
2018-07-15T01:42:35.395Z,64.70
2018-07-15T01:45:03.897Z,64.80
2018-07-15T01:47:32.342Z,65.00
2018-07-15T01:50:00.831Z,65.10
2018-07-15T01:52:29.276Z,65.30
2018-07-15T01:54:57.787Z,65.30
2018-07-15T01:57:26.231Z,65.40
2018-07-15T01:59:54.713Z,65.30
2018-07-15T02:02:23.226Z,65.20
2018-07-15T02:04:51.698Z,65.20
2018-07-15T02:07:20.133Z,65.20
2018-07-15T02:09:48.609Z,65.10
2018-07-15T02:12:17.100Z,65.80
2018-07-15T02:14:45.629Z,64.80
2018-07-15T02:17:14.076Z,64.70
2018-07-15T02:19:42.811Z,64.40
2018-07-15T02:22:11.304Z,64.20
2018-07-15T02:24:39.807Z,64.20
2018-07-15T02:27:08.411Z,64.20
2018-07-15T02:29:36.892Z,64.20
2018-07-15T02:32:05.392Z,64.30
2018-07-15T02:34:33.880Z,64.20
2018-07-15T02:37:02.332Z,64.00
2018-07-15T02:39:30.779Z,64.00
2018-07-15T02:41:59.260Z,65.00
2018-07-15T02:44:27.729Z,64.10
2018-07-15T02:46:56.196Z,64.00
2018-07-15T02:49:24.636Z,64.10
2018-07-15T02:51:53.696Z,64.20
2018-07-15T02:54:22.160Z,64.10
2018-07-15T02:56:50.661Z,64.10
2018-07-15T02:59:19.096Z,64.00
2018-07-15T03:01:47.584Z,64.10
2018-07-15T03:04:16.017Z,64.10
2018-07-15T03:06:44.491Z,64.10
2018-07-15T03:09:12.991Z,64.10
2018-07-15T03:11:41.452Z,64.00
2018-07-15T03:14:09.898Z,64.00
2018-07-15T03:16:38.718Z,64.00
2018-07-15T03:19:07.141Z,64.10
2018-07-15T03:21:35.648Z,64.30
2018-07-15T03:24:04.124Z,64.60
2018-07-15T03:26:32.954Z,64.60
2018-07-15T03:29:01.388Z,64.70
2018-07-15T03:31:29.859Z,64.70
2018-07-15T03:33:58.290Z,64.80
2018-07-15T03:36:26.796Z,64.90
2018-07-15T03:38:55.245Z,64.90
2018-07-15T03:41:23.732Z,65.10
2018-07-15T03:43:52.169Z,65.00
2018-07-15T03:46:20.815Z,65.10
2018-07-15T03:48:49.240Z,65.10
2018-07-15T03:51:17.709Z,65.30
2018-07-15T03:53:46.164Z,65.30
2018-07-15T03:56:14.612Z,65.40
2018-07-15T03:58:43.093Z,65.50
2018-07-15T04:01:11.548Z,66.50
2018-07-15T04:03:40.340Z,65.60
2018-07-15T04:06:08.799Z,65.80
2018-07-15T04:08:37.295Z,65.80
2018-07-15T04:11:05.887Z,65.60
2018-07-15T04:13:34.393Z,66.40
2018-07-15T04:16:02.825Z,65.50
2018-07-15T04:18:31.291Z,65.80
2018-07-15T04:20:59.783Z,66.00
2018-07-15T04:23:28.264Z,65.90
2018-07-15T04:25:56.711Z,66.00
2018-07-15T04:28:25.250Z,66.10
2018-07-15T04:30:53.814Z,66.00
2018-07-15T04:33:22.302Z,65.90
2018-07-15T04:35:50.740Z,65.80
2018-07-15T04:38:19.228Z,65.80
2018-07-15T04:40:47.673Z,65.60
2018-07-15T04:43:16.156Z,65.60
2018-07-15T04:45:44.780Z,66.00
2018-07-15T04:48:13.235Z,65.30
2018-07-15T04:50:41.677Z,66.00
2018-07-15T04:53:10.136Z,65.00
2018-07-15T04:55:38.567Z,64.90
2018-07-15T04:58:07.412Z,65.00
2018-07-15T05:00:35.864Z,65.30
2018-07-15T05:03:04.346Z,65.30
2018-07-15T05:05:32.771Z,65.60
2018-07-15T05:08:01.245Z,65.60
2018-07-15T05:10:29.731Z,65.70
2018-07-15T05:12:58.201Z,65.90
2018-07-15T05:15:26.631Z,65.80
2018-07-15T05:17:55.554Z,65.10
2018-07-15T05:20:24.370Z,64.90
2018-07-15T05:22:52.832Z,64.20
2018-07-15T05:25:21.302Z,63.50
2018-07-15T05:27:49.746Z,62.60
2018-07-15T05:30:18.232Z,62.30
2018-07-15T05:32:46.691Z,61.70
2018-07-15T05:35:15.179Z,61.20
2018-07-15T05:40:11.800Z,61.30
2018-07-15T05:42:40.255Z,61.10
2018-07-15T05:45:08.729Z,60.80
2018-07-15T05:47:37.181Z,60.50
2018-07-15T05:50:05.686Z,60.50
2018-07-15T05:52:34.164Z,60.40
2018-07-15T05:55:02.646Z,60.10
2018-07-15T05:57:31.276Z,59.70
2018-07-15T06:00:02.928Z,59.70
2018-07-15T06:02:34.993Z,59.60
2018-07-15T06:05:05.776Z,59.40
2018-07-15T06:07:34.227Z,59.50
2018-07-15T06:10:02.704Z,59.20
2018-07-15T06:12:31.185Z,59.10
2018-07-15T06:14:59.667Z,59.00
2018-07-15T06:17:28.180Z,58.40
2018-07-15T06:19:56.678Z,58.20
2018-07-15T06:22:25.120Z,57.90
2018-07-15T06:24:53.952Z,57.40
2018-07-15T06:27:22.387Z,57.30
2018-07-15T06:29:50.855Z,57.30
2018-07-15T06:32:19.299Z,57.40
2018-07-15T06:34:47.829Z,57.30
2018-07-15T06:37:16.267Z,57.00
2018-07-15T06:39:44.735Z,57.10
2018-07-15T06:42:13.562Z,57.00
2018-07-15T06:44:42.011Z,56.50
2018-07-15T06:47:10.479Z,56.20
2018-07-15T06:49:38.915Z,56.00
2018-07-15T06:52:07.383Z,55.90
2018-07-15T06:57:04.052Z,55.90
2018-07-15T06:59:32.501Z,55.60
2018-07-15T07:02:01.000Z,55.10
2018-07-15T07:04:29.431Z,55.20
2018-07-15T07:06:57.916Z,54.30
2018-07-15T07:09:26.344Z,54.10
2018-07-15T07:11:54.779Z,53.80
2018-07-15T07:14:23.250Z,53.50
2018-07-15T07:16:51.677Z,52.70
2018-07-15T07:19:20.212Z,52.90
2018-07-15T07:21:48.642Z,52.80
2018-07-15T07:24:17.280Z,52.60
2018-07-15T07:26:45.723Z,52.00
2018-07-15T07:29:14.264Z,52.40
2018-07-15T07:31:43.092Z,51.30
2018-07-15T07:34:11.580Z,51.60
2018-07-15T07:36:40.041Z,50.90
2018-07-15T07:39:08.920Z,50.90
2018-07-15T07:41:37.376Z,50.60
2018-07-15T07:44:05.875Z,50.20
2018-07-15T07:46:34.311Z,50.40
2018-07-15T07:49:02.784Z,50.30
2018-07-15T07:51:31.216Z,50.00
2018-07-15T07:56:28.378Z,49.20
2018-07-15T08:01:25.510Z,49.50
2018-07-15T08:03:54.554Z,49.30
2018-07-15T08:06:23.552Z,49.00
2018-07-15T08:08:52.566Z,48.10
2018-07-15T08:11:21.541Z,47.40
2018-07-15T08:13:50.691Z,48.10
2018-07-15T08:16:19.794Z,47.60
2018-07-15T08:18:48.819Z,47.30
2018-07-15T08:21:17.835Z,47.50
2018-07-15T08:23:46.854Z,48.00
2018-07-15T08:26:15.863Z,45.80
2018-07-15T08:28:44.885Z,46.80
2018-07-15T08:31:17.199Z,45.20
2018-07-15T08:33:46.266Z,45.50
2018-07-15T08:36:15.270Z,44.30
2018-07-15T08:38:44.279Z,44.40
2018-07-15T08:41:13.282Z,43.80
2018-07-15T08:43:42.291Z,44.50
2018-07-15T08:46:11.343Z,44.70
2018-07-15T08:48:40.508Z,43.90
2018-07-15T08:51:09.492Z,43.20
2018-07-15T08:53:38.535Z,43.40
2018-07-15T08:56:07.830Z,43.70
2018-07-15T09:01:05.586Z,43.00
2018-07-15T09:03:34.804Z,41.50
2018-07-15T09:06:03.837Z,41.50
2018-07-15T09:08:32.875Z,41.60
2018-07-15T09:11:01.911Z,41.90
2018-07-15T09:13:30.953Z,41.40
2018-07-15T09:15:59.965Z,41.00
2018-07-15T09:18:29.539Z,39.30
2018-07-15T09:20:58.596Z,41.00
2018-07-15T09:23:27.574Z,40.10
2018-07-15T09:25:56.595Z,39.40
2018-07-15T09:28:25.591Z,38.00
2018-07-15T09:30:54.626Z,39.00
2018-07-15T09:33:23.671Z,39.90
2018-07-15T09:35:52.689Z,39.70
2018-07-15T09:38:21.680Z,39.40
2018-07-15T09:40:50.725Z,38.30
2018-07-15T09:45:48.472Z,40.10
2018-07-15T09:48:17.446Z,37.50
2018-07-15T09:50:46.614Z,37.30
2018-07-15T09:53:15.596Z,35.20
2018-07-15T09:55:44.620Z,35.70
2018-07-15T09:58:13.753Z,34.80
2018-07-15T10:00:48.334Z,34.00
2018-07-15T10:03:17.357Z,32.70
2018-07-15T10:05:46.397Z,34.00
2018-07-15T10:08:15.416Z,34.30
2018-07-15T10:10:44.484Z,32.80
2018-07-15T10:13:13.520Z,31.80
2018-07-15T10:15:42.567Z,31.90
2018-07-15T10:18:11.541Z,32.50
2018-07-15T10:20:40.976Z,32.00
2018-07-15T10:23:09.973Z,30.80
2018-07-15T10:25:39.002Z,32.10
2018-07-15T10:28:08.019Z,30.80
2018-07-15T10:30:37.041Z,30.90
2018-07-15T10:33:06.038Z,30.00
2018-07-15T10:35:45.546Z,30.60
2018-07-15T10:38:14.663Z,30.20
2018-07-15T10:40:43.707Z,30.20
2018-07-15T10:43:12.694Z,30.10
2018-07-15T10:45:41.760Z,30.00
2018-07-15T10:48:11.095Z,29.40
2018-07-15T10:50:40.119Z,30.00
2018-07-15T10:53:09.171Z,29.50
2018-07-15T10:55:38.232Z,28.50
2018-07-15T10:58:07.232Z,26.50
2018-07-15T11:03:04.926Z,27.20
2018-07-15T11:05:34.128Z,27.70
2018-07-15T11:08:03.472Z,27.90
2018-07-15T11:10:32.515Z,29.50
2018-07-15T11:13:01.526Z,26.40
2018-07-15T11:15:30.518Z,26.90
2018-07-15T11:17:59.692Z,26.40
2018-07-15T11:20:28.913Z,26.30
2018-07-15T11:22:57.955Z,27.50
2018-07-15T11:27:55.664Z,26.80
2018-07-15T11:30:24.724Z,27.00
2018-07-15T11:32:53.706Z,25.70
2018-07-15T11:35:22.704Z,26.50
2018-07-15T11:37:51.739Z,26.00
2018-07-15T11:40:20.768Z,25.80
2018-07-15T11:42:49.843Z,26.00
2018-07-15T11:45:18.836Z,26.50
2018-07-15T11:47:47.850Z,26.10
2018-07-15T11:50:16.870Z,25.90
2018-07-15T11:52:45.868Z,28.20
2018-07-15T11:55:14.869Z,27.90
2018-07-15T11:57:43.892Z,28.10
2018-07-15T12:00:12.862Z,27.80
2018-07-15T12:02:41.867Z,28.80
2018-07-15T12:05:10.854Z,29.40
2018-07-15T12:07:39.874Z,29.90
2018-07-15T12:10:08.905Z,29.40
2018-07-15T12:12:37.946Z,29.80
2018-07-15T12:15:07.284Z,30.00
2018-07-15T12:20:05.140Z,30.10
2018-07-15T12:22:34.164Z,31.40
2018-07-15T12:25:03.159Z,29.80
2018-07-15T12:27:32.159Z,30.80
2018-07-15T12:30:01.145Z,30.70
2018-07-15T12:32:30.171Z,30.40
2018-07-15T12:34:59.141Z,30.10
2018-07-15T12:37:28.164Z,30.30
2018-07-15T12:39:57.138Z,31.80
2018-07-15T12:42:26.179Z,30.90
2018-07-15T12:44:55.551Z,32.50
2018-07-15T12:47:24.608Z,38.70
2018-07-15T12:49:53.627Z,46.10
2018-07-15T12:52:23.019Z,49.90
2018-07-15T12:54:52.015Z,54.80
2018-07-15T12:57:21.136Z,54.80
2018-07-15T12:59:50.149Z,55.90
2018-07-15T13:02:19.383Z,55.30
2018-07-15T13:04:47.839Z,58.60
2018-07-15T13:07:16.322Z,58.10
2018-07-15T13:09:44.804Z,62.10
2018-07-15T13:12:13.298Z,63.40
2018-07-15T13:14:41.753Z,61.00
2018-07-15T13:17:10.255Z,65.20
2018-07-15T13:19:38.803Z,65.90
2018-07-15T13:22:07.771Z,67.60
2018-07-15T13:24:36.235Z,67.70
2018-07-15T13:27:04.765Z,67.90
2018-07-15T13:29:33.261Z,67.40
2018-07-15T13:32:02.029Z,67.30
2018-07-15T13:34:30.594Z,66.00
2018-07-15T13:36:59.183Z,65.00
2018-07-15T13:39:27.665Z,64.80
2018-07-15T13:41:56.182Z,61.90
2018-07-15T13:46:53.679Z,61.20
2018-07-15T13:51:50.744Z,61.40
2018-07-15T13:54:19.236Z,60.90
2018-07-15T13:56:47.664Z,61.50
2018-07-15T13:59:16.143Z,60.20
2018-07-15T14:01:44.634Z,60.20
2018-07-15T14:04:13.727Z,59.10
2018-07-15T14:06:42.902Z,59.40
2018-07-15T14:09:11.959Z,61.00
2018-07-15T14:11:40.949Z,58.00
2018-07-15T14:14:09.984Z,57.70
2018-07-15T14:16:38.983Z,57.20
2018-07-15T14:19:08.383Z,57.50
2018-07-15T14:21:37.428Z,57.20
2018-07-15T14:24:06.444Z,57.20
2018-07-15T14:26:36.147Z,55.70
2018-07-15T14:29:05.340Z,55.80
2018-07-15T14:31:34.412Z,56.20
2018-07-15T14:34:03.757Z,54.90
2018-07-15T14:36:32.808Z,53.40
2018-07-15T14:39:02.338Z,53.10
2018-07-15T14:41:31.380Z,55.20
2018-07-15T14:44:00.440Z,61.40
2018-07-15T14:46:31.570Z,60.80
2018-07-15T14:49:01.268Z,62.30
2018-07-15T14:51:30.621Z,63.80
2018-07-15T14:53:59.672Z,63.20
2018-07-15T14:56:28.648Z,63.70
2018-07-15T14:58:57.758Z,64.20
2018-07-15T15:01:26.808Z,62.50
2018-07-15T15:03:55.830Z,58.10
2018-07-15T15:06:25.017Z,58.40
2018-07-15T15:08:54.039Z,59.20
2018-07-15T15:11:23.241Z,56.20
2018-07-15T15:13:52.260Z,57.20
2018-07-15T15:18:50.046Z,53.60
2018-07-15T15:21:19.084Z,53.90
2018-07-15T15:23:48.166Z,53.40
2018-07-15T15:26:17.341Z,54.00
2018-07-15T15:28:46.328Z,54.60
2018-07-15T15:31:15.335Z,54.40
2018-07-15T15:33:44.717Z,53.40
2018-07-15T15:36:13.876Z,52.10
2018-07-15T15:38:42.846Z,51.50
2018-07-15T15:41:12.216Z,51.90
2018-07-15T15:43:41.242Z,52.00
2018-07-15T15:46:10.264Z,51.90
2018-07-15T15:48:39.245Z,51.50
2018-07-15T15:51:08.781Z,51.40
2018-07-15T15:53:37.756Z,48.90
2018-07-15T15:56:06.807Z,50.00
2018-07-15T15:58:35.801Z,50.70
2018-07-15T16:01:05.211Z,49.00
2018-07-15T16:03:34.207Z,49.50
2018-07-15T16:06:03.588Z,49.00
2018-07-15T16:08:32.596Z,48.70
2018-07-15T16:11:02.005Z,49.50
2018-07-15T16:13:31.018Z,49.30
2018-07-15T16:16:00.387Z,48.30
2018-07-15T16:18:29.442Z,48.60
2018-07-15T16:20:58.492Z,47.20
2018-07-15T16:23:27.489Z,47.30
2018-07-15T16:25:56.696Z,47.50
2018-07-15T16:28:25.675Z,47.30
2018-07-15T16:30:55.044Z,47.20
2018-07-15T16:33:24.099Z,46.60
2018-07-15T16:43:19.551Z,45.50
2018-07-15T16:45:48.576Z,45.90
2018-07-15T16:48:17.551Z,45.60
2018-07-15T16:50:46.586Z,45.80
2018-07-15T16:53:15.555Z,45.40
2018-07-15T16:55:44.642Z,45.10
2018-07-15T16:58:13.667Z,45.50
2018-07-15T17:00:42.719Z,46.30
2018-07-15T17:03:11.733Z,46.90
2018-07-15T17:05:40.911Z,47.60
2018-07-15T17:08:09.955Z,46.00
2018-07-15T17:10:39.026Z,45.90
2018-07-15T17:13:08.026Z,46.00
2018-07-15T17:15:37.045Z,45.50
2018-07-15T17:18:06.132Z,45.00
2018-07-15T17:20:35.160Z,43.40
2018-07-15T17:23:04.341Z,43.30
2018-07-15T17:25:33.331Z,43.90
2018-07-15T17:28:02.453Z,44.30
2018-07-15T17:30:31.439Z,44.60
2018-07-15T17:33:00.460Z,42.40
2018-07-15T17:35:29.463Z,42.80
2018-07-15T17:37:58.491Z,44.20
2018-07-15T17:40:27.791Z,45.50
2018-07-15T17:42:56.935Z,46.20
2018-07-15T17:45:25.916Z,46.00
2018-07-15T17:47:54.939Z,45.50
2018-07-15T17:50:23.918Z,45.70
2018-07-15T17:52:52.938Z,46.60
2018-07-15T17:55:21.950Z,44.80
2018-07-15T17:57:51.135Z,45.20
2018-07-15T18:00:20.119Z,45.70
2018-07-15T18:02:49.139Z,45.90
2018-07-15T18:05:18.125Z,46.70
2018-07-15T18:07:47.154Z,47.80
2018-07-15T18:10:16.533Z,49.00
2018-07-15T18:12:45.571Z,49.80
2018-07-15T18:15:14.556Z,50.80
2018-07-15T18:17:43.632Z,50.80
2018-07-15T18:20:12.668Z,51.20
2018-07-15T18:22:41.732Z,52.20
2018-07-15T18:25:10.760Z,53.10
2018-07-15T18:27:39.254Z,54.50
2018-07-15T18:30:08.256Z,54.90
2018-07-15T18:32:36.767Z,55.90
2018-07-15T18:35:05.256Z,55.80
2018-07-15T18:37:33.741Z,56.10
2018-07-15T18:40:02.232Z,56.50
2018-07-15T18:42:30.813Z,56.20
2018-07-15T18:44:59.436Z,56.40
2018-07-15T18:47:28.113Z,56.40
2018-07-15T18:49:56.546Z,56.70
2018-07-15T18:52:25.094Z,57.30
2018-07-15T18:54:53.527Z,57.10
2018-07-15T18:57:22.021Z,58.20
2018-07-15T18:59:50.499Z,58.10
2018-07-15T19:02:19.005Z,58.30
2018-07-15T19:04:47.652Z,58.50
2018-07-15T19:07:16.120Z,58.40
2018-07-15T19:09:44.631Z,58.60
2018-07-15T19:12:13.118Z,58.70
2018-07-15T19:14:41.592Z,58.40
2018-07-15T19:17:10.083Z,59.20
2018-07-15T19:19:38.611Z,58.20
2018-07-15T19:22:07.064Z,58.30
2018-07-15T19:24:35.932Z,58.40
2018-07-15T19:27:04.949Z,58.30
2018-07-15T19:29:34.483Z,58.70
2018-07-15T19:32:02.984Z,58.70
2018-07-15T19:34:31.471Z,58.70
2018-07-15T19:37:01.301Z,58.70
2018-07-15T19:39:29.789Z,58.80
2018-07-15T19:41:59.294Z,59.00
2018-07-15T19:44:28.048Z,59.20
2018-07-15T19:46:56.554Z,59.30
2018-07-15T19:49:25.264Z,59.50
2018-07-15T19:51:54.090Z,59.80
2018-07-15T19:54:22.931Z,60.50
2018-07-15T19:56:52.413Z,61.00
2018-07-15T19:59:21.236Z,61.10
2018-07-15T20:01:51.025Z,61.70
2018-07-15T20:04:19.615Z,61.90
2018-07-15T20:06:48.231Z,62.10
2018-07-15T20:09:16.948Z,63.00
2018-07-15T20:11:45.903Z,63.20
2018-07-15T20:14:14.492Z,63.20
2018-07-15T20:16:43.322Z,63.90
2018-07-15T20:19:11.901Z,63.90
2018-07-15T20:21:40.925Z,64.40
2018-07-15T20:24:09.744Z,64.40
2018-07-15T20:26:38.361Z,65.90
2018-07-15T20:29:06.860Z,67.00
2018-07-15T20:31:35.647Z,67.60
2018-07-15T20:34:04.591Z,68.00
2018-07-15T20:36:33.613Z,67.90
2018-07-15T20:39:03.209Z,67.80
2018-07-15T20:41:31.726Z,67.30
2018-07-15T20:44:00.599Z,67.20
2018-07-15T20:46:29.055Z,67.60
2018-07-15T20:48:57.549Z,67.70
2018-07-15T20:51:26.000Z,68.00
2018-07-15T20:53:54.506Z,68.70
2018-07-15T20:56:23.252Z,69.30
2018-07-15T20:58:51.839Z,69.70
2018-07-15T21:01:20.271Z,69.80
2018-07-15T21:03:48.744Z,69.40
2018-07-15T21:06:18.319Z,69.20
2018-07-15T21:08:47.208Z,70.30
2018-07-15T21:11:15.647Z,69.90
2018-07-15T21:13:44.139Z,70.60
2018-07-15T21:16:13.026Z,70.60
2018-07-15T21:18:41.508Z,71.00
2018-07-15T21:21:10.006Z,71.00
2018-07-15T21:23:38.492Z,70.60
2018-07-15T21:26:06.983Z,70.70
2018-07-15T21:28:35.418Z,70.70
2018-07-15T21:31:04.327Z,70.70
2018-07-15T21:33:32.814Z,70.60
2018-07-15T21:36:01.306Z,70.80
2018-07-15T21:38:29.788Z,71.00
2018-07-15T21:40:58.283Z,71.00
2018-07-15T21:43:26.755Z,70.70
2018-07-15T21:45:55.300Z,70.70
2018-07-15T21:48:23.748Z,70.40
2018-07-15T21:50:52.243Z,70.20
2018-07-15T21:53:20.674Z,70.70
2018-07-15T21:55:49.241Z,70.90
2018-07-15T21:58:17.719Z,71.80
2018-07-15T22:00:46.211Z,72.50
2018-07-15T22:03:14.661Z,73.10
2018-07-15T22:05:43.182Z,73.80
2018-07-15T22:10:46.494Z,75.20
2018-07-15T22:13:15.013Z,75.80
2018-07-15T22:15:43.550Z,76.20
2018-07-15T22:18:12.052Z,76.50
2018-07-15T22:20:40.553Z,76.90
2018-07-15T22:23:09.029Z,77.20
2018-07-15T22:25:37.572Z,77.30
2018-07-15T22:28:06.132Z,77.60
2018-07-15T22:30:34.756Z,77.80
2018-07-15T22:33:03.224Z,77.60
2018-07-15T22:35:32.048Z,77.50
2018-07-15T22:38:00.532Z,77.50
2018-07-15T22:40:29.016Z,77.70
2018-07-15T22:42:57.479Z,77.90
2018-07-15T22:45:26.181Z,77.90
2018-07-15T22:47:54.631Z,78.00
2018-07-15T22:50:23.165Z,77.90
2018-07-15T22:52:51.671Z,77.60
2018-07-15T22:55:20.250Z,77.60
2018-07-15T22:57:48.738Z,77.60
2018-07-15T23:00:17.320Z,77.90
2018-07-15T23:02:45.768Z,78.10
2018-07-15T23:05:37.823Z,78.20
2018-07-15T23:08:07.354Z,78.40
2018-07-15T23:13:06.736Z,78.20
2018-07-15T23:15:35.650Z,78.20
2018-07-15T23:18:04.255Z,78.40
2018-07-15T23:20:33.432Z,78.50
2018-07-15T23:23:02.760Z,78.80
2018-07-15T23:25:31.866Z,79.00
2018-07-15T23:28:01.457Z,79.10
2018-07-15T23:30:30.904Z,79.00
2018-07-15T23:32:59.530Z,79.10
2018-07-15T23:35:27.995Z,79.10
2018-07-15T23:37:56.643Z,79.10
2018-07-15T23:40:25.176Z,79.40
2018-07-15T23:42:54.549Z,79.50
2018-07-15T23:45:24.379Z,79.70
2018-07-15T23:50:21.200Z,79.50
2018-07-15T23:52:49.763Z,79.30
2018-07-15T23:55:18.640Z,79.20
2018-07-15T23:57:47.638Z,79.00
